sensor_id;sensor_type;location;lat;lon;timestamp;P1;durP1;ratioP1;P2;durP2;ratioP2
48859;SDS011;34679;51.436;-2.518;2023-01-29T00:01:42;22.67;;;15.73;;
48859;SDS011;34679;51.436;-2.518;2023-01-29T00:04:08;25.75;;;17.15;;
48859;SDS011;34679;51.436;-2.518;2023-01-29T00:06:33;30.25;;;17.90;;
48859;SDS011;34679;51.436;-2.518;2023-01-29T00:08:59;27.08;;;16.20;;
48859;SDS011;34679;51.436;-2.518;2023-01-29T00:11:25;28.23;;;15.30;;
48859;SDS011;34679;51.436;-2.518;2023-01-29T00:13:51;25.95;;;16.10;;
48859;SDS011;34679;51.436;-2.518;2023-01-29T00:16:17;24.50;;;15.20;;
48859;SDS011;34679;51.436;-2.518;2023-01-29T00:18:43;30.45;;;18.38;;
48859;SDS011;34679;51.436;-2.518;2023-01-29T00:21:13;25.15;;;16.13;;
48859;SDS011;34679;51.436;-2.518;2023-01-29T00:23:41;32.35;;;16.98;;
48859;SDS011;34679;51.436;-2.518;2023-01-29T00:26:07;17.80;;;12.95;;
48859;SDS011;34679;51.436;-2.518;2023-01-29T00:28:34;20.98;;;13.55;;
48859;SDS011;34679;51.436;-2.518;2023-01-29T00:31:16;19.52;;;13.25;;
48859;SDS011;34679;51.436;-2.518;2023-01-29T00:33:43;19.77;;;12.88;;
48859;SDS011;34679;51.436;-2.518;2023-01-29T00:36:10;15.68;;;11.77;;
48859;SDS011;34679;51.436;-2.518;2023-01-29T00:38:37;16.25;;;12.13;;
48859;SDS011;34679;51.436;-2.518;2023-01-29T00:43:54;18.50;;;11.27;;
48859;SDS011;34679;51.436;-2.518;2023-01-29T00:46:49;24.42;;;11.90;;
48859;SDS011;34679;51.436;-2.518;2023-01-29T00:49:15;14.23;;;9.82;;
48859;SDS011;34679;51.436;-2.518;2023-01-29T00:51:41;15.25;;;10.38;;
48859;SDS011;34679;51.436;-2.518;2023-01-29T00:54:06;16.77;;;10.75;;
48859;SDS011;34679;51.436;-2.518;2023-01-29T00:56:35;16.83;;;10.95;;
48859;SDS011;34679;51.436;-2.518;2023-01-29T00:59:01;16.73;;;10.32;;
48859;SDS011;34679;51.436;-2.518;2023-01-29T01:01:28;21.10;;;11.05;;
48859;SDS011;34679;51.436;-2.518;2023-01-29T01:04:12;16.48;;;10.07;;
48859;SDS011;34679;51.436;-2.518;2023-01-29T01:06:38;15.20;;;10.60;;
48859;SDS011;34679;51.436;-2.518;2023-01-29T01:09:06;16.05;;;11.35;;
48859;SDS011;34679;51.436;-2.518;2023-01-29T01:11:51;15.90;;;10.05;;
48859;SDS011;34679;51.436;-2.518;2023-01-29T01:14:18;18.90;;;10.63;;
48859;SDS011;34679;51.436;-2.518;2023-01-29T01:16:45;20.73;;;10.18;;
48859;SDS011;34679;51.436;-2.518;2023-01-29T01:19:12;14.32;;;10.45;;
48859;SDS011;34679;51.436;-2.518;2023-01-29T01:21:38;13.05;;;10.13;;
48859;SDS011;34679;51.436;-2.518;2023-01-29T01:24:03;15.10;;;10.52;;
48859;SDS011;34679;51.436;-2.518;2023-01-29T01:26:30;18.15;;;11.20;;
48859;SDS011;34679;51.436;-2.518;2023-01-29T01:28:57;20.38;;;9.88;;
48859;SDS011;34679;51.436;-2.518;2023-01-29T01:31:23;15.65;;;11.18;;
48859;SDS011;34679;51.436;-2.518;2023-01-29T01:33:49;17.80;;;11.90;;
48859;SDS011;34679;51.436;-2.518;2023-01-29T01:36:15;13.88;;;9.60;;
48859;SDS011;34679;51.436;-2.518;2023-01-29T01:38:42;17.20;;;10.13;;
48859;SDS011;34679;51.436;-2.518;2023-01-29T01:41:19;16.20;;;10.18;;
48859;SDS011;34679;51.436;-2.518;2023-01-29T01:43:51;16.02;;;10.45;;
48859;SDS011;34679;51.436;-2.518;2023-01-29T01:46:20;13.82;;;10.50;;
48859;SDS011;34679;51.436;-2.518;2023-01-29T01:48:47;15.48;;;10.80;;
48859;SDS011;34679;51.436;-2.518;2023-01-29T01:51:17;15.90;;;11.23;;
48859;SDS011;34679;51.436;-2.518;2023-01-29T01:54:05;19.25;;;10.35;;
48859;SDS011;34679;51.436;-2.518;2023-01-29T01:56:41;18.63;;;10.30;;
48859;SDS011;34679;51.436;-2.518;2023-01-29T01:59:10;16.63;;;11.07;;
48859;SDS011;34679;51.436;-2.518;2023-01-29T02:01:38;18.95;;;11.43;;
48859;SDS011;34679;51.436;-2.518;2023-01-29T02:04:07;19.27;;;11.02;;
48859;SDS011;34679;51.436;-2.518;2023-01-29T02:06:59;18.00;;;11.02;;
48859;SDS011;34679;51.436;-2.518;2023-01-29T02:10:31;16.50;;;10.85;;
48859;SDS011;34679;51.436;-2.518;2023-01-29T02:12:31;15.80;;;9.77;;
48859;SDS011;34679;51.436;-2.518;2023-01-29T02:14:57;16.60;;;11.23;;
48859;SDS011;34679;51.436;-2.518;2023-01-29T02:17:24;15.25;;;10.63;;
48859;SDS011;34679;51.436;-2.518;2023-01-29T02:30:34;26.63;;;12.82;;
48859;SDS011;34679;51.436;-2.518;2023-01-29T02:33:06;21.50;;;13.45;;
48859;SDS011;34679;51.436;-2.518;2023-01-29T02:46:55;27.63;;;14.48;;
48859;SDS011;34679;51.436;-2.518;2023-01-29T02:50:05;32.47;;;14.63;;
48859;SDS011;34679;51.436;-2.518;2023-01-29T02:52:15;26.33;;;14.45;;
48859;SDS011;34679;51.436;-2.518;2023-01-29T02:54:48;33.03;;;15.02;;
48859;SDS011;34679;51.436;-2.518;2023-01-29T02:57:25;24.70;;;16.25;;
48859;SDS011;34679;51.436;-2.518;2023-01-29T03:02:34;30.67;;;16.20;;
48859;SDS011;34679;51.436;-2.518;2023-01-29T03:05:23;29.80;;;16.60;;
48859;SDS011;34679;51.436;-2.518;2023-01-29T03:07:57;35.70;;;17.40;;
48859;SDS011;34679;51.436;-2.518;2023-01-29T03:10:30;35.25;;;17.70;;
48859;SDS011;34679;51.436;-2.518;2023-01-29T03:16:35;33.03;;;17.58;;
48859;SDS011;34679;51.436;-2.518;2023-01-29T03:19:11;29.77;;;16.40;;
48859;SDS011;34679;51.436;-2.518;2023-01-29T03:21:55;32.35;;;16.52;;
48859;SDS011;34679;51.436;-2.518;2023-01-29T03:24:43;29.50;;;17.60;;
48859;SDS011;34679;51.436;-2.518;2023-01-29T03:27:40;30.80;;;16.40;;
48859;SDS011;34679;51.436;-2.518;2023-01-29T03:30:29;27.90;;;14.77;;
48859;SDS011;34679;51.436;-2.518;2023-01-29T03:33:16;25.50;;;12.95;;
48859;SDS011;34679;51.436;-2.518;2023-01-29T03:35:49;20.25;;;12.38;;
48859;SDS011;34679;51.436;-2.518;2023-01-29T03:38:20;21.30;;;12.20;;
48859;SDS011;34679;51.436;-2.518;2023-01-29T03:43:30;24.35;;;13.10;;
48859;SDS011;34679;51.436;-2.518;2023-01-29T03:49:00;16.75;;;12.25;;
48859;SDS011;34679;51.436;-2.518;2023-01-29T03:54:53;27.13;;;13.55;;
48859;SDS011;34679;51.436;-2.518;2023-01-29T03:57:27;19.25;;;13.57;;
48859;SDS011;34679;51.436;-2.518;2023-01-29T04:00:16;21.77;;;12.80;;
48859;SDS011;34679;51.436;-2.518;2023-01-29T04:05:30;24.83;;;14.00;;
48859;SDS011;34679;51.436;-2.518;2023-01-29T04:08:05;24.58;;;14.57;;
48859;SDS011;34679;51.436;-2.518;2023-01-29T04:10:34;21.88;;;13.52;;
48859;SDS011;34679;51.436;-2.518;2023-01-29T04:13:07;23.02;;;13.88;;
48859;SDS011;34679;51.436;-2.518;2023-01-29T04:15:36;23.33;;;13.50;;
48859;SDS011;34679;51.436;-2.518;2023-01-29T04:18:10;26.10;;;14.73;;
48859;SDS011;34679;51.436;-2.518;2023-01-29T04:20:35;29.70;;;15.25;;
48859;SDS011;34679;51.436;-2.518;2023-01-29T04:23:04;27.35;;;15.40;;
48859;SDS011;34679;51.436;-2.518;2023-01-29T04:25:34;26.73;;;14.43;;
48859;SDS011;34679;51.436;-2.518;2023-01-29T04:28:12;33.22;;;14.65;;
48859;SDS011;34679;51.436;-2.518;2023-01-29T04:30:50;25.58;;;14.98;;
48859;SDS011;34679;51.436;-2.518;2023-01-29T04:41:48;24.65;;;13.32;;
48859;SDS011;34679;51.436;-2.518;2023-01-29T04:44:27;25.85;;;15.13;;
48859;SDS011;34679;51.436;-2.518;2023-01-29T05:00:30;27.73;;;16.17;;
48859;SDS011;34679;51.436;-2.518;2023-01-29T05:03:02;26.90;;;16.00;;
48859;SDS011;34679;51.436;-2.518;2023-01-29T05:05:29;31.55;;;15.05;;
48859;SDS011;34679;51.436;-2.518;2023-01-29T05:07:55;27.98;;;15.80;;
48859;SDS011;34679;51.436;-2.518;2023-01-29T05:10:23;32.72;;;16.33;;
48859;SDS011;34679;51.436;-2.518;2023-01-29T05:12:51;30.17;;;15.85;;
48859;SDS011;34679;51.436;-2.518;2023-01-29T05:15:23;27.25;;;15.50;;
48859;SDS011;34679;51.436;-2.518;2023-01-29T05:17:52;33.42;;;16.02;;
48859;SDS011;34679;51.436;-2.518;2023-01-29T05:20:18;25.35;;;14.82;;
48859;SDS011;34679;51.436;-2.518;2023-01-29T05:22:44;29.27;;;17.15;;
48859;SDS011;34679;51.436;-2.518;2023-01-29T05:25:31;25.38;;;16.10;;
48859;SDS011;34679;51.436;-2.518;2023-01-29T05:27:57;25.52;;;16.17;;
48859;SDS011;34679;51.436;-2.518;2023-01-29T05:30:38;27.98;;;16.08;;
48859;SDS011;34679;51.436;-2.518;2023-01-29T05:33:08;25.15;;;15.10;;
48859;SDS011;34679;51.436;-2.518;2023-01-29T05:35:40;25.58;;;16.10;;
48859;SDS011;34679;51.436;-2.518;2023-01-29T05:38:06;27.17;;;14.48;;
48859;SDS011;34679;51.436;-2.518;2023-01-29T05:40:32;24.45;;;14.50;;
48859;SDS011;34679;51.436;-2.518;2023-01-29T05:42:58;29.70;;;15.10;;
48859;SDS011;34679;51.436;-2.518;2023-01-29T05:45:24;32.03;;;14.98;;
48859;SDS011;34679;51.436;-2.518;2023-01-29T05:47:50;25.67;;;14.45;;
48859;SDS011;34679;51.436;-2.518;2023-01-29T05:50:23;25.52;;;13.82;;
48859;SDS011;34679;51.436;-2.518;2023-01-29T05:52:54;28.00;;;15.68;;
48859;SDS011;34679;51.436;-2.518;2023-01-29T05:55:21;30.65;;;15.82;;
48859;SDS011;34679;51.436;-2.518;2023-01-29T05:57:47;26.75;;;14.50;;
48859;SDS011;34679;51.436;-2.518;2023-01-29T06:00:12;25.30;;;16.27;;
48859;SDS011;34679;51.436;-2.518;2023-01-29T06:02:39;27.10;;;14.57;;
48859;SDS011;34679;51.436;-2.518;2023-01-29T06:05:04;27.10;;;14.73;;
48859;SDS011;34679;51.436;-2.518;2023-01-29T06:07:30;26.48;;;14.40;;
48859;SDS011;34679;51.436;-2.518;2023-01-29T06:09:56;25.65;;;13.43;;
48859;SDS011;34679;51.436;-2.518;2023-01-29T06:12:22;29.33;;;14.98;;
48859;SDS011;34679;51.436;-2.518;2023-01-29T06:14:47;21.45;;;13.80;;
48859;SDS011;34679;51.436;-2.518;2023-01-29T06:17:13;22.35;;;13.73;;
48859;SDS011;34679;51.436;-2.518;2023-01-29T06:19:39;25.80;;;14.07;;
48859;SDS011;34679;51.436;-2.518;2023-01-29T06:22:05;20.45;;;11.25;;
48859;SDS011;34679;51.436;-2.518;2023-01-29T06:24:30;21.98;;;12.40;;
48859;SDS011;34679;51.436;-2.518;2023-01-29T06:26:56;24.42;;;11.30;;
48859;SDS011;34679;51.436;-2.518;2023-01-29T06:29:22;28.80;;;14.15;;
48859;SDS011;34679;51.436;-2.518;2023-01-29T06:31:48;23.27;;;12.48;;
48859;SDS011;34679;51.436;-2.518;2023-01-29T06:34:14;23.95;;;12.82;;
48859;SDS011;34679;51.436;-2.518;2023-01-29T06:36:39;24.48;;;12.05;;
48859;SDS011;34679;51.436;-2.518;2023-01-29T06:39:05;20.45;;;12.32;;
48859;SDS011;34679;51.436;-2.518;2023-01-29T06:41:31;22.38;;;12.57;;
48859;SDS011;34679;51.436;-2.518;2023-01-29T06:43:57;19.85;;;12.32;;
48859;SDS011;34679;51.436;-2.518;2023-01-29T06:46:23;20.85;;;12.13;;
48859;SDS011;34679;51.436;-2.518;2023-01-29T06:48:49;31.10;;;13.43;;
48859;SDS011;34679;51.436;-2.518;2023-01-29T06:51:14;22.05;;;11.57;;
48859;SDS011;34679;51.436;-2.518;2023-01-29T06:53:40;19.88;;;11.88;;
48859;SDS011;34679;51.436;-2.518;2023-01-29T06:56:06;23.50;;;12.23;;
48859;SDS011;34679;51.436;-2.518;2023-01-29T06:58:32;17.83;;;11.80;;
48859;SDS011;34679;51.436;-2.518;2023-01-29T07:01:07;21.83;;;11.55;;
48859;SDS011;34679;51.436;-2.518;2023-01-29T07:03:34;20.00;;;11.02;;
48859;SDS011;34679;51.436;-2.518;2023-01-29T07:05:59;17.77;;;10.68;;
48859;SDS011;34679;51.436;-2.518;2023-01-29T07:08:25;19.60;;;11.07;;
48859;SDS011;34679;51.436;-2.518;2023-01-29T07:10:52;20.02;;;11.25;;
48859;SDS011;34679;51.436;-2.518;2023-01-29T07:13:23;18.20;;;10.55;;
48859;SDS011;34679;51.436;-2.518;2023-01-29T07:15:48;16.70;;;10.38;;
48859;SDS011;34679;51.436;-2.518;2023-01-29T07:18:14;20.17;;;12.15;;
48859;SDS011;34679;51.436;-2.518;2023-01-29T07:20:40;19.73;;;9.80;;
48859;SDS011;34679;51.436;-2.518;2023-01-29T07:23:13;22.80;;;10.05;;
48859;SDS011;34679;51.436;-2.518;2023-01-29T07:25:39;13.38;;;8.98;;
48859;SDS011;34679;51.436;-2.518;2023-01-29T07:28:05;16.77;;;8.38;;
48859;SDS011;34679;51.436;-2.518;2023-01-29T07:30:31;15.93;;;8.40;;
48859;SDS011;34679;51.436;-2.518;2023-01-29T07:33:01;20.35;;;9.40;;
48859;SDS011;34679;51.436;-2.518;2023-01-29T07:35:27;18.00;;;9.18;;
48859;SDS011;34679;51.436;-2.518;2023-01-29T07:37:53;17.23;;;10.32;;
48859;SDS011;34679;51.436;-2.518;2023-01-29T07:40:18;18.17;;;9.60;;
48859;SDS011;34679;51.436;-2.518;2023-01-29T07:42:44;14.25;;;9.38;;
48859;SDS011;34679;51.436;-2.518;2023-01-29T07:45:11;16.23;;;8.38;;
48859;SDS011;34679;51.436;-2.518;2023-01-29T07:47:37;13.73;;;8.73;;
48859;SDS011;34679;51.436;-2.518;2023-01-29T07:50:03;14.77;;;9.55;;
48859;SDS011;34679;51.436;-2.518;2023-01-29T07:52:30;21.60;;;9.93;;
48859;SDS011;34679;51.436;-2.518;2023-01-29T07:54:57;17.48;;;9.85;;
48859;SDS011;34679;51.436;-2.518;2023-01-29T07:57:23;18.67;;;11.88;;
48859;SDS011;34679;51.436;-2.518;2023-01-29T07:59:48;23.67;;;10.68;;
48859;SDS011;34679;51.436;-2.518;2023-01-29T08:02:14;23.17;;;11.13;;
48859;SDS011;34679;51.436;-2.518;2023-01-29T08:04:40;15.45;;;10.10;;
48859;SDS011;34679;51.436;-2.518;2023-01-29T08:07:05;13.75;;;8.95;;
48859;SDS011;34679;51.436;-2.518;2023-01-29T08:09:33;14.75;;;8.57;;
48859;SDS011;34679;51.436;-2.518;2023-01-29T08:11:59;12.73;;;7.85;;
48859;SDS011;34679;51.436;-2.518;2023-01-29T08:14:25;14.52;;;7.53;;
48859;SDS011;34679;51.436;-2.518;2023-01-29T08:16:50;11.30;;;6.88;;
48859;SDS011;34679;51.436;-2.518;2023-01-29T08:19:16;11.48;;;7.55;;
48859;SDS011;34679;51.436;-2.518;2023-01-29T08:21:42;10.18;;;7.28;;
48859;SDS011;34679;51.436;-2.518;2023-01-29T08:24:07;12.43;;;8.13;;
48859;SDS011;34679;51.436;-2.518;2023-01-29T08:26:33;11.02;;;7.10;;
48859;SDS011;34679;51.436;-2.518;2023-01-29T08:28:59;8.23;;;6.18;;
48859;SDS011;34679;51.436;-2.518;2023-01-29T08:31:25;10.82;;;6.30;;
48859;SDS011;34679;51.436;-2.518;2023-01-29T08:33:52;7.22;;;6.20;;
48859;SDS011;34679;51.436;-2.518;2023-01-29T08:36:19;7.88;;;5.85;;
48859;SDS011;34679;51.436;-2.518;2023-01-29T08:38:45;7.93;;;5.95;;
48859;SDS011;34679;51.436;-2.518;2023-01-29T08:41:10;6.97;;;6.32;;
48859;SDS011;34679;51.436;-2.518;2023-01-29T08:43:36;8.60;;;6.10;;
48859;SDS011;34679;51.436;-2.518;2023-01-29T08:46:05;8.85;;;5.78;;
48859;SDS011;34679;51.436;-2.518;2023-01-29T08:48:32;6.57;;;5.88;;
48859;SDS011;34679;51.436;-2.518;2023-01-29T08:50:59;6.82;;;6.10;;
48859;SDS011;34679;51.436;-2.518;2023-01-29T08:53:26;6.10;;;5.35;;
48859;SDS011;34679;51.436;-2.518;2023-01-29T08:55:52;7.00;;;6.30;;
48859;SDS011;34679;51.436;-2.518;2023-01-29T08:58:18;10.35;;;6.82;;
48859;SDS011;34679;51.436;-2.518;2023-01-29T09:00:44;6.85;;;5.95;;
48859;SDS011;34679;51.436;-2.518;2023-01-29T09:03:09;6.68;;;6.05;;
48859;SDS011;34679;51.436;-2.518;2023-01-29T09:05:36;6.57;;;5.55;;
48859;SDS011;34679;51.436;-2.518;2023-01-29T09:08:03;7.40;;;6.13;;
48859;SDS011;34679;51.436;-2.518;2023-01-29T09:10:29;39.33;;;8.05;;
48859;SDS011;34679;51.436;-2.518;2023-01-29T09:12:55;8.73;;;5.90;;
48859;SDS011;34679;51.436;-2.518;2023-01-29T09:15:21;8.65;;;6.10;;
48859;SDS011;34679;51.436;-2.518;2023-01-29T09:17:46;5.75;;;4.95;;
48859;SDS011;34679;51.436;-2.518;2023-01-29T09:20:15;7.22;;;5.55;;
48859;SDS011;34679;51.436;-2.518;2023-01-29T09:22:43;6.85;;;5.10;;
48859;SDS011;34679;51.436;-2.518;2023-01-29T09:25:08;5.70;;;5.13;;
48859;SDS011;34679;51.436;-2.518;2023-01-29T09:27:34;8.32;;;5.57;;
48859;SDS011;34679;51.436;-2.518;2023-01-29T09:30:00;5.53;;;5.03;;
48859;SDS011;34679;51.436;-2.518;2023-01-29T09:32:27;5.50;;;4.45;;
48859;SDS011;34679;51.436;-2.518;2023-01-29T09:34:54;6.93;;;4.40;;
48859;SDS011;34679;51.436;-2.518;2023-01-29T09:37:20;4.95;;;4.45;;
48859;SDS011;34679;51.436;-2.518;2023-01-29T09:39:47;7.22;;;5.20;;
48859;SDS011;34679;51.436;-2.518;2023-01-29T09:42:21;5.03;;;4.22;;
48859;SDS011;34679;51.436;-2.518;2023-01-29T09:45:03;4.95;;;3.97;;
48859;SDS011;34679;51.436;-2.518;2023-01-29T09:47:36;6.38;;;4.28;;
48859;SDS011;34679;51.436;-2.518;2023-01-29T09:50:11;4.47;;;3.83;;
48859;SDS011;34679;51.436;-2.518;2023-01-29T09:55:22;3.75;;;3.40;;
48859;SDS011;34679;51.436;-2.518;2023-01-29T09:58:06;4.18;;;3.22;;
48859;SDS011;34679;51.436;-2.518;2023-01-29T10:00:50;3.30;;;3.00;;
48859;SDS011;34679;51.436;-2.518;2023-01-29T10:25:43;1.50;;;1.40;;
48859;SDS011;34679;51.436;-2.518;2023-01-29T10:28:17;2.05;;;1.63;;
48859;SDS011;34679;51.436;-2.518;2023-01-29T10:31:04;1.75;;;1.42;;
48859;SDS011;34679;51.436;-2.518;2023-01-29T10:36:06;1.70;;;1.50;;
48859;SDS011;34679;51.436;-2.518;2023-01-29T10:38:47;1.20;;;1.10;;
48859;SDS011;34679;51.436;-2.518;2023-01-29T10:44:16;2.28;;;1.20;;
48859;SDS011;34679;51.436;-2.518;2023-01-29T11:01:19;1.77;;;1.67;;
48859;SDS011;34679;51.436;-2.518;2023-01-29T11:03:44;3.47;;;1.50;;
48859;SDS011;34679;51.436;-2.518;2023-01-29T11:11:17;2.38;;;1.65;;
48859;SDS011;34679;51.436;-2.518;2023-01-29T11:16:14;3.50;;;2.75;;
48859;SDS011;34679;51.436;-2.518;2023-01-29T11:18:47;1.92;;;1.73;;
48859;SDS011;34679;51.436;-2.518;2023-01-29T11:21:14;2.55;;;1.83;;
48859;SDS011;34679;51.436;-2.518;2023-01-29T11:23:40;2.17;;;1.95;;
48859;SDS011;34679;51.436;-2.518;2023-01-29T11:26:06;2.85;;;1.73;;
48859;SDS011;34679;51.436;-2.518;2023-01-29T11:31:19;2.97;;;2.08;;
48859;SDS011;34679;51.436;-2.518;2023-01-29T11:34:02;2.15;;;1.90;;
48859;SDS011;34679;51.436;-2.518;2023-01-29T11:36:39;2.63;;;1.90;;
48859;SDS011;34679;51.436;-2.518;2023-01-29T11:39:11;2.42;;;1.70;;
48859;SDS011;34679;51.436;-2.518;2023-01-29T11:44:31;3.78;;;1.63;;
48859;SDS011;34679;51.436;-2.518;2023-01-29T11:49:51;2.28;;;1.85;;
48859;SDS011;34679;51.436;-2.518;2023-01-29T11:52:23;1.20;;;1.10;;
48859;SDS011;34679;51.436;-2.518;2023-01-29T11:55:15;1.25;;;0.90;;
48859;SDS011;34679;51.436;-2.518;2023-01-29T11:58:00;0.82;;;0.82;;
48859;SDS011;34679;51.436;-2.518;2023-01-29T12:00:37;1.25;;;0.50;;
48859;SDS011;34679;51.436;-2.518;2023-01-29T12:05:39;0.57;;;0.52;;
48859;SDS011;34679;51.436;-2.518;2023-01-29T12:08:13;2.47;;;0.73;;
48859;SDS011;34679;51.436;-2.518;2023-01-29T12:10:42;1.15;;;0.75;;
48859;SDS011;34679;51.436;-2.518;2023-01-29T12:15:34;1.02;;;0.70;;
48859;SDS011;34679;51.436;-2.518;2023-01-29T12:20:34;2.08;;;0.60;;
48859;SDS011;34679;51.436;-2.518;2023-01-29T12:25:49;1.20;;;0.80;;
48859;SDS011;34679;51.436;-2.518;2023-01-29T12:28:35;2.58;;;0.70;;
48859;SDS011;34679;51.436;-2.518;2023-01-29T12:34:01;1.70;;;1.10;;
48859;SDS011;34679;51.436;-2.518;2023-01-29T12:39:19;7.85;;;1.00;;
48859;SDS011;34679;51.436;-2.518;2023-01-29T12:41:47;5.07;;;1.75;;
48859;SDS011;34679;51.436;-2.518;2023-01-29T12:46:55;3.65;;;0.75;;
48859;SDS011;34679;51.436;-2.518;2023-01-29T12:49:31;1.95;;;0.60;;
48859;SDS011;34679;51.436;-2.518;2023-01-29T12:57:23;2.47;;;0.90;;
48859;SDS011;34679;51.436;-2.518;2023-01-29T13:00:01;0.87;;;0.40;;
48859;SDS011;34679;51.436;-2.518;2023-01-29T13:05:25;1.67;;;0.75;;
48859;SDS011;34679;51.436;-2.518;2023-01-29T13:08:24;1.65;;;0.47;;
48859;SDS011;34679;51.436;-2.518;2023-01-29T13:10:54;1.45;;;0.93;;
48859;SDS011;34679;51.436;-2.518;2023-01-29T13:13:29;2.72;;;0.68;;
48859;SDS011;34679;51.436;-2.518;2023-01-29T13:16:01;2.00;;;0.50;;
48859;SDS011;34679;51.436;-2.518;2023-01-29T13:20:56;2.38;;;1.13;;
48859;SDS011;34679;51.436;-2.518;2023-01-29T13:23:42;4.53;;;0.85;;
48859;SDS011;34679;51.436;-2.518;2023-01-29T13:26:20;2.05;;;0.50;;
48859;SDS011;34679;51.436;-2.518;2023-01-29T13:28:47;2.95;;;0.70;;
48859;SDS011;34679;51.436;-2.518;2023-01-29T13:31:34;0.80;;;0.50;;
48859;SDS011;34679;51.436;-2.518;2023-01-29T13:34:16;8.27;;;0.90;;
48859;SDS011;34679;51.436;-2.518;2023-01-29T13:36:49;2.50;;;0.40;;
48859;SDS011;34679;51.436;-2.518;2023-01-29T13:39:19;4.72;;;0.50;;
48859;SDS011;34679;51.436;-2.518;2023-01-29T13:42:16;2.03;;;0.30;;
48859;SDS011;34679;51.436;-2.518;2023-01-29T13:44:46;2.28;;;0.50;;
48859;SDS011;34679;51.436;-2.518;2023-01-29T13:47:29;2.58;;;0.50;;
48859;SDS011;34679;51.436;-2.518;2023-01-29T13:52:39;1.77;;;0.30;;
48859;SDS011;34679;51.436;-2.518;2023-01-29T14:02:44;1.55;;;0.40;;
48859;SDS011;34679;51.436;-2.518;2023-01-29T14:05:39;3.20;;;0.60;;
48859;SDS011;34679;51.436;-2.518;2023-01-29T14:10:39;0.82;;;0.60;;
48859;SDS011;34679;51.436;-2.518;2023-01-29T14:18:23;2.22;;;0.55;;
48859;SDS011;34679;51.436;-2.518;2023-01-29T14:21:00;1.45;;;0.40;;
48859;SDS011;34679;51.436;-2.518;2023-01-29T14:23:43;1.55;;;0.52;;
48859;SDS011;34679;51.436;-2.518;2023-01-29T14:28:59;2.53;;;0.60;;
48859;SDS011;34679;51.436;-2.518;2023-01-29T14:31:36;5.72;;;0.85;;
48859;SDS011;34679;51.436;-2.518;2023-01-29T14:34:11;5.20;;;0.93;;
48859;SDS011;34679;51.436;-2.518;2023-01-29T14:36:47;3.10;;;0.70;;
48859;SDS011;34679;51.436;-2.518;2023-01-29T14:39:24;2.03;;;0.90;;
48859;SDS011;34679;51.436;-2.518;2023-01-29T14:41:57;0.50;;;0.50;;
48859;SDS011;34679;51.436;-2.518;2023-01-29T14:47:54;0.85;;;0.60;;
48859;SDS011;34679;51.436;-2.518;2023-01-29T14:49:57;1.02;;;0.68;;
48859;SDS011;34679;51.436;-2.518;2023-01-29T14:52:46;2.67;;;0.65;;
48859;SDS011;34679;51.436;-2.518;2023-01-29T14:55:18;3.83;;;1.00;;
48859;SDS011;34679;51.436;-2.518;2023-01-29T14:58:09;3.00;;;1.00;;
48859;SDS011;34679;51.436;-2.518;2023-01-29T15:00:43;3.40;;;1.20;;
48859;SDS011;34679;51.436;-2.518;2023-01-29T15:06:16;1.83;;;1.48;;
48859;SDS011;34679;51.436;-2.518;2023-01-29T15:08:59;1.35;;;1.23;;
48859;SDS011;34679;51.436;-2.518;2023-01-29T15:11:46;3.17;;;1.45;;
48859;SDS011;34679;51.436;-2.518;2023-01-29T15:14:46;2.13;;;1.88;;
48859;SDS011;34679;51.436;-2.518;2023-01-29T15:17:27;2.63;;;1.52;;
48859;SDS011;34679;51.436;-2.518;2023-01-29T15:19:58;2.75;;;1.50;;
48859;SDS011;34679;51.436;-2.518;2023-01-29T15:22:23;1.70;;;1.45;;
48859;SDS011;34679;51.436;-2.518;2023-01-29T15:25:06;5.05;;;2.53;;
48859;SDS011;34679;51.436;-2.518;2023-01-29T15:27:41;2.30;;;1.40;;
48859;SDS011;34679;51.436;-2.518;2023-01-29T15:30:13;3.28;;;1.58;;
48859;SDS011;34679;51.436;-2.518;2023-01-29T15:32:47;2.63;;;1.90;;
48859;SDS011;34679;51.436;-2.518;2023-01-29T15:38:02;2.85;;;1.70;;
48859;SDS011;34679;51.436;-2.518;2023-01-29T15:40:37;2.13;;;1.30;;
48859;SDS011;34679;51.436;-2.518;2023-01-29T15:43:11;1.60;;;1.40;;
48859;SDS011;34679;51.436;-2.518;2023-01-29T15:48:13;1.20;;;1.10;;
48859;SDS011;34679;51.436;-2.518;2023-01-29T15:50:42;2.03;;;1.08;;
48859;SDS011;34679;51.436;-2.518;2023-01-29T15:53:12;1.15;;;1.05;;
48859;SDS011;34679;51.436;-2.518;2023-01-29T15:55:41;1.25;;;1.00;;
48859;SDS011;34679;51.436;-2.518;2023-01-29T15:58:11;3.05;;;1.20;;
48859;SDS011;34679;51.436;-2.518;2023-01-29T16:00:41;2.22;;;1.83;;
48859;SDS011;34679;51.436;-2.518;2023-01-29T16:03:23;2.75;;;1.88;;
48859;SDS011;34679;51.436;-2.518;2023-01-29T16:05:52;7.10;;;2.00;;
48859;SDS011;34679;51.436;-2.518;2023-01-29T16:08:22;3.03;;;2.15;;
48859;SDS011;34679;51.436;-2.518;2023-01-29T16:10:59;3.65;;;2.08;;
48859;SDS011;34679;51.436;-2.518;2023-01-29T16:13:32;2.17;;;1.73;;
48859;SDS011;34679;51.436;-2.518;2023-01-29T16:16:00;2.90;;;2.22;;
48859;SDS011;34679;51.436;-2.518;2023-01-29T16:18:29;3.08;;;2.72;;
48859;SDS011;34679;51.436;-2.518;2023-01-29T16:20:58;3.50;;;2.45;;
48859;SDS011;34679;51.436;-2.518;2023-01-29T16:23:33;4.63;;;2.90;;
48859;SDS011;34679;51.436;-2.518;2023-01-29T16:26:05;6.97;;;2.95;;
48859;SDS011;34679;51.436;-2.518;2023-01-29T16:28:33;4.40;;;3.38;;
48859;SDS011;34679;51.436;-2.518;2023-01-29T16:31:05;5.07;;;3.25;;
48859;SDS011;34679;51.436;-2.518;2023-01-29T16:33:35;7.50;;;3.30;;
48859;SDS011;34679;51.436;-2.518;2023-01-29T16:36:07;3.10;;;2.70;;
48859;SDS011;34679;51.436;-2.518;2023-01-29T16:38:41;6.03;;;2.97;;
48859;SDS011;34679;51.436;-2.518;2023-01-29T16:43:51;4.80;;;3.22;;
48859;SDS011;34679;51.436;-2.518;2023-01-29T16:46:23;3.95;;;3.03;;
48859;SDS011;34679;51.436;-2.518;2023-01-29T16:51:54;8.27;;;3.72;;
48859;SDS011;34679;51.436;-2.518;2023-01-29T16:54:24;5.38;;;2.92;;
48859;SDS011;34679;51.436;-2.518;2023-01-29T16:56:52;10.68;;;3.78;;
48859;SDS011;34679;51.436;-2.518;2023-01-29T16:59:31;3.50;;;3.13;;
48859;SDS011;34679;51.436;-2.518;2023-01-29T17:01:58;6.25;;;3.75;;
48859;SDS011;34679;51.436;-2.518;2023-01-29T17:04:24;5.15;;;3.50;;
48859;SDS011;34679;51.436;-2.518;2023-01-29T17:06:55;9.15;;;3.60;;
48859;SDS011;34679;51.436;-2.518;2023-01-29T17:09:24;3.35;;;2.63;;
48859;SDS011;34679;51.436;-2.518;2023-01-29T17:12:05;6.43;;;3.50;;
48859;SDS011;34679;51.436;-2.518;2023-01-29T17:14:34;5.40;;;3.33;;
48859;SDS011;34679;51.436;-2.518;2023-01-29T17:17:11;3.15;;;2.85;;
48859;SDS011;34679;51.436;-2.518;2023-01-29T17:19:39;4.80;;;3.15;;
48859;SDS011;34679;51.436;-2.518;2023-01-29T17:22:05;4.85;;;3.65;;
48859;SDS011;34679;51.436;-2.518;2023-01-29T17:24:32;5.38;;;3.50;;
48859;SDS011;34679;51.436;-2.518;2023-01-29T17:27:01;6.20;;;3.80;;
48859;SDS011;34679;51.436;-2.518;2023-01-29T17:29:28;7.15;;;4.38;;
48859;SDS011;34679;51.436;-2.518;2023-01-29T17:31:55;5.03;;;4.10;;
48859;SDS011;34679;51.436;-2.518;2023-01-29T17:34:24;14.00;;;4.18;;
48859;SDS011;34679;51.436;-2.518;2023-01-29T17:36:50;9.68;;;3.63;;
48859;SDS011;34679;51.436;-2.518;2023-01-29T17:39:20;5.85;;;3.15;;
48859;SDS011;34679;51.436;-2.518;2023-01-29T17:41:52;5.43;;;3.30;;
48859;SDS011;34679;51.436;-2.518;2023-01-29T17:44:19;8.00;;;2.92;;
48859;SDS011;34679;51.436;-2.518;2023-01-29T17:46:45;9.43;;;3.85;;
48859;SDS011;34679;51.436;-2.518;2023-01-29T17:49:28;9.07;;;2.95;;
48859;SDS011;34679;51.436;-2.518;2023-01-29T17:51:56;7.70;;;2.65;;
48859;SDS011;34679;51.436;-2.518;2023-01-29T17:54:23;6.95;;;3.35;;
48859;SDS011;34679;51.436;-2.518;2023-01-29T17:56:49;7.75;;;2.83;;
48859;SDS011;34679;51.436;-2.518;2023-01-29T18:01:42;8.35;;;2.45;;